Elmwood, NE (68349)

1:58 PM CST on March 05, 2015 (GMT -0600)
274th & Fletcher Ave | Change Station
CLOSE
Current Station
Personal Weather Station
Location: Elmwood, NE
Elevation: 1290 ft
Nearby Weather Stations

Elev 1290 ft 40.87 °N, 96.33 °W | Updated 21 seconds ago

Clear
Clear
27.0 °F
Feels Like 19 °F
N
8.0
Wind Variable Wind from SE
Gusts 19.0 mph

Today
High -- | Low -- °F
--% Chance of Precip.
Yesterday
High -- | Low -- °F
Precip. -- in
6:53 AM 6:20 PM
Full, 100% visible
Pressure 30.47 in
Visibility 10.0 miles
Clouds Clear
Windchill 19 °F
Dew Point 7 °F
Humidity 42%
Rainfall in
Snow Depth Not available.
UV 6 out of 12
Pollen 2.20 out of 12
Air Quality Not available.
Flu Activity Not available.
METAR KPMV 051935Z AUTO 15006KT 10SM CLR M04/M18 A3047 RMK AO2 T10411185

More Conditions Fewer Conditions

Pressure 30.47 in
Visibility 10.0 miles
Clouds Clear
Windchill 19 °F
Dew Point 7 °F
Humidity 42%
Rainfall in
Snow Depth Not available.
UV 6 out of 12
Pollen 2.20 out of 12
Air Quality Not available.
Flu Activity Not available.
METAR KPMV 051935Z AUTO 15006KT 10SM CLR M04/M18 A3047 RMK AO2 T10411185

More Conditions Fewer Conditions

10-Day Weather Forecast

Almanac

Astronomy

Mar. 05, 2015 Rise Set
Actual Time
Civil Twilight
Nautical Twilight
Astronomical Twilight
Moon
Length of Visible Light
Length of Day
Tomorrow will be .
, % of the Moon is Illuminated

Today's Extremes

State Highs State Lows

Community

WunderPhotos

Upload Photos

1,802,929 photos uploaded!

WunderBlogs® & News

Nearby

Air Quality

  Air Quality AQ Index Pollutant
Not available.

Snow Depth

Station Depth Elevation

Earthquake Activity

City Distance Mag. Time & Date
Minimum magnitude displayed is 2.5.

Coastal Water Temperatures

Place Temperature

Nearby Weather Stations